John M Carras — SVBK5 — position and weather

sailwx.info

Track history (hours):
 
Tides and Currents Weather Stations Pressure Air Temp Water Temp Dewpoint Dewpoint Depression Visibility Wind Speed Wind Dir Waves Ship Positions

John M Carras

Last reported at 2017-Mar-22 05:30 UTC. Time now 2017-Mar-28 15:46 UTC.
Position S 18°03' E 058°42'.

Length 229 m; draft 11.6 m.

Type: Ship. MMSI: 241150000.

Date/timePositionNaut miles runAvg speedWind from/ knotsBaromVisibWave heightAir tempDewpointWater temp
2017-Mar-22 05:30S 18°03' E 058°42'1111.7
2017-Mar-22 04:33S 18°07' E 058°31'3511.4
2017-Mar-22 01:30S 18°19' E 057°56'1611.3
2017-Mar-22 00:03S 18°28' E 057°42'711.6
2017-Mar-21 23:29S 18°32' E 057°36'1211.6
2017-Mar-21 22:27S 18°40' E 057°26'1311.4
2017-Mar-21 21:17S 18°48' E 057°15'3511.6
2017-Mar-21 18:16S 19°10' E 056°46'3511.9
2017-Mar-21 15:21S 19°31' E 056°17'  
Track history (hours):
 
Tides and Currents Weather Stations Pressure Air Temp Water Temp Dewpoint Dewpoint Depression Visibility Wind Speed Wind Dir Waves Ship Positions

John M Carras

Last reported at 2017-Mar-22 05:30 UTC. Time now 2017-Mar-28 15:46 UTC.
Position S 18°03' E 058°42'.

Length 229 m; draft 11.6 m.

Type: Ship. MMSI: 241150000.

Date/timePositionNaut miles runAvg speedWind from/ knotsBaromVisibWave heightAir tempDewpointWater temp
2017-Mar-22 05:30S 18°03' E 058°42'1111.7
2017-Mar-22 04:33S 18°07' E 058°31'3511.4
2017-Mar-22 01:30S 18°19' E 057°56'1611.3
2017-Mar-22 00:03S 18°28' E 057°42'711.6
2017-Mar-21 23:29S 18°32' E 057°36'1211.6
2017-Mar-21 22:27S 18°40' E 057°26'1311.4
2017-Mar-21 21:17S 18°48' E 057°15'3511.6
2017-Mar-21 18:16S 19°10' E 056°46'3511.9
2017-Mar-21 15:21S 19°31' E 056°17'  

Dump ship's entire track history